sensor_id;sensor_type;location;lat;lon;timestamp;P1;durP1;ratioP1;P2;durP2;ratioP2
53391;SDS011;41667;51.922;8.850;2023-08-12T00:00:00;3.88;;;2.72;;
53391;SDS011;41667;51.922;8.850;2023-08-12T00:02:33;3.80;;;2.63;;
53391;SDS011;41667;51.922;8.850;2023-08-12T00:04:58;4.40;;;3.17;;
53391;SDS011;41667;51.922;8.850;2023-08-12T00:07:23;6.60;;;3.60;;
53391;SDS011;41667;51.922;8.850;2023-08-12T00:09:49;4.90;;;3.75;;
53391;SDS011;41667;51.922;8.850;2023-08-12T00:12:14;3.55;;;2.80;;
53391;SDS011;41667;51.922;8.850;2023-08-12T00:14:39;4.07;;;2.97;;
53391;SDS011;41667;51.922;8.850;2023-08-12T00:17:05;5.55;;;3.55;;
53391;SDS011;41667;51.922;8.850;2023-08-12T00:19:30;4.90;;;3.05;;
53391;SDS011;41667;51.922;8.850;2023-08-12T00:21:55;6.03;;;3.25;;
53391;SDS011;41667;51.922;8.850;2023-08-12T00:24:20;8.70;;;3.42;;
53391;SDS011;41667;51.922;8.850;2023-08-12T00:26:45;8.00;;;3.63;;
53391;SDS011;41667;51.922;8.850;2023-08-12T00:29:10;4.00;;;3.00;;
53391;SDS011;41667;51.922;8.850;2023-08-12T00:31:36;4.72;;;2.92;;
53391;SDS011;41667;51.922;8.850;2023-08-12T00:34:01;3.45;;;3.15;;
53391;SDS011;41667;51.922;8.850;2023-08-12T00:36:26;4.10;;;3.05;;
53391;SDS011;41667;51.922;8.850;2023-08-12T00:38:51;7.32;;;2.30;;
53391;SDS011;41667;51.922;8.850;2023-08-12T00:41:16;4.38;;;2.88;;
53391;SDS011;41667;51.922;8.850;2023-08-12T00:43:41;3.33;;;2.65;;
53391;SDS011;41667;51.922;8.850;2023-08-12T00:46:06;4.95;;;2.75;;
53391;SDS011;41667;51.922;8.850;2023-08-12T00:48:32;3.75;;;3.13;;
53391;SDS011;41667;51.922;8.850;2023-08-12T00:50:57;7.60;;;3.25;;
53391;SDS011;41667;51.922;8.850;2023-08-12T00:53:22;3.90;;;2.50;;
53391;SDS011;41667;51.922;8.850;2023-08-12T00:55:47;2.80;;;1.87;;
53391;SDS011;41667;51.922;8.850;2023-08-12T00:58:13;2.00;;;1.90;;
53391;SDS011;41667;51.922;8.850;2023-08-12T01:00:38;2.87;;;2.00;;
53391;SDS011;41667;51.922;8.850;2023-08-12T01:03:03;1.75;;;1.60;;
53391;SDS011;41667;51.922;8.850;2023-08-12T01:05:29;4.68;;;1.83;;
53391;SDS011;41667;51.922;8.850;2023-08-12T01:07:55;2.25;;;2.08;;
53391;SDS011;41667;51.922;8.850;2023-08-12T01:10:21;2.38;;;2.13;;
53391;SDS011;41667;51.922;8.850;2023-08-12T01:12:49;1.98;;;1.88;;
53391;SDS011;41667;51.922;8.850;2023-08-12T01:15:15;2.30;;;2.10;;
53391;SDS011;41667;51.922;8.850;2023-08-12T01:17:41;3.60;;;1.55;;
53391;SDS011;41667;51.922;8.850;2023-08-12T01:20:07;2.53;;;2.33;;
53391;SDS011;41667;51.922;8.850;2023-08-12T01:22:37;4.20;;;2.47;;
53391;SDS011;41667;51.922;8.850;2023-08-12T01:25:04;2.28;;;1.88;;
53391;SDS011;41667;51.922;8.850;2023-08-12T01:27:30;5.72;;;2.30;;
53391;SDS011;41667;51.922;8.850;2023-08-12T01:29:55;3.10;;;2.08;;
53391;SDS011;41667;51.922;8.850;2023-08-12T01:35:09;5.13;;;2.58;;
53391;SDS011;41667;51.922;8.850;2023-08-12T01:37:36;2.70;;;1.92;;
53391;SDS011;41667;51.922;8.850;2023-08-12T01:40:02;2.92;;;2.00;;
53391;SDS011;41667;51.922;8.850;2023-08-12T01:42:29;5.22;;;2.08;;
53391;SDS011;41667;51.922;8.850;2023-08-12T01:44:55;4.45;;;2.90;;
53391;SDS011;41667;51.922;8.850;2023-08-12T01:47:20;5.93;;;3.40;;
53391;SDS011;41667;51.922;8.850;2023-08-12T01:49:45;3.80;;;3.17;;
53391;SDS011;41667;51.922;8.850;2023-08-12T01:52:11;8.73;;;3.53;;
53391;SDS011;41667;51.922;8.850;2023-08-12T01:54:36;6.77;;;4.00;;
53391;SDS011;41667;51.922;8.850;2023-08-12T01:57:04;8.67;;;4.07;;
53391;SDS011;41667;51.922;8.850;2023-08-12T01:59:33;4.38;;;3.22;;
53391;SDS011;41667;51.922;8.850;2023-08-12T02:01:58;5.30;;;3.78;;
53391;SDS011;41667;51.922;8.850;2023-08-12T02:04:24;7.70;;;4.10;;
53391;SDS011;41667;51.922;8.850;2023-08-12T02:06:49;8.02;;;4.32;;
53391;SDS011;41667;51.922;8.850;2023-08-12T02:09:15;6.03;;;4.73;;
53391;SDS011;41667;51.922;8.850;2023-08-12T02:11:40;4.00;;;3.63;;
53391;SDS011;41667;51.922;8.850;2023-08-12T02:14:05;9.10;;;4.07;;
53391;SDS011;41667;51.922;8.850;2023-08-12T02:16:30;6.93;;;3.50;;
53391;SDS011;41667;51.922;8.850;2023-08-12T02:18:55;5.93;;;4.53;;
53391;SDS011;41667;51.922;8.850;2023-08-12T02:21:21;5.60;;;4.13;;
53391;SDS011;41667;51.922;8.850;2023-08-12T02:23:46;6.97;;;4.50;;
53391;SDS011;41667;51.922;8.850;2023-08-12T02:26:11;5.10;;;3.60;;
53391;SDS011;41667;51.922;8.850;2023-08-12T02:28:36;6.25;;;4.82;;
53391;SDS011;41667;51.922;8.850;2023-08-12T02:31:01;11.80;;;4.68;;
53391;SDS011;41667;51.922;8.850;2023-08-12T02:33:26;6.90;;;5.13;;
53391;SDS011;41667;51.922;8.850;2023-08-12T02:35:52;11.68;;;4.88;;
53391;SDS011;41667;51.922;8.850;2023-08-12T02:38:17;7.72;;;4.45;;
53391;SDS011;41667;51.922;8.850;2023-08-12T02:40:43;6.30;;;4.65;;
53391;SDS011;41667;51.922;8.850;2023-08-12T02:43:08;8.00;;;5.22;;
53391;SDS011;41667;51.922;8.850;2023-08-12T02:45:35;10.77;;;5.53;;
53391;SDS011;41667;51.922;8.850;2023-08-12T02:48:00;8.77;;;4.88;;
53391;SDS011;41667;51.922;8.850;2023-08-12T02:50:25;6.75;;;4.63;;
53391;SDS011;41667;51.922;8.850;2023-08-12T02:52:50;8.93;;;4.93;;
53391;SDS011;41667;51.922;8.850;2023-08-12T02:55:15;6.90;;;4.45;;
53391;SDS011;41667;51.922;8.850;2023-08-12T02:57:41;5.90;;;4.10;;
53391;SDS011;41667;51.922;8.850;2023-08-12T03:00:06;8.80;;;5.32;;
53391;SDS011;41667;51.922;8.850;2023-08-12T03:02:32;7.88;;;4.30;;
53391;SDS011;41667;51.922;8.850;2023-08-12T03:04:57;5.85;;;4.15;;
53391;SDS011;41667;51.922;8.850;2023-08-12T03:07:23;6.68;;;4.50;;
53391;SDS011;41667;51.922;8.850;2023-08-12T03:09:48;10.43;;;6.88;;
53391;SDS011;41667;51.922;8.850;2023-08-12T03:12:13;11.00;;;7.30;;
53391;SDS011;41667;51.922;8.850;2023-08-12T03:14:38;10.55;;;6.32;;
53391;SDS011;41667;51.922;8.850;2023-08-12T03:17:04;11.60;;;6.40;;
53391;SDS011;41667;51.922;8.850;2023-08-12T03:19:29;15.40;;;7.57;;
53391;SDS011;41667;51.922;8.850;2023-08-12T03:21:54;12.83;;;8.60;;
53391;SDS011;41667;51.922;8.850;2023-08-12T03:24:19;14.30;;;7.30;;
53391;SDS011;41667;51.922;8.850;2023-08-12T03:26:45;11.07;;;7.10;;
53391;SDS011;41667;51.922;8.850;2023-08-12T03:29:10;10.75;;;6.90;;
53391;SDS011;41667;51.922;8.850;2023-08-12T03:31:35;10.90;;;7.22;;
53391;SDS011;41667;51.922;8.850;2023-08-12T03:34:00;10.65;;;6.85;;
53391;SDS011;41667;51.922;8.850;2023-08-12T03:36:25;11.17;;;8.17;;
53391;SDS011;41667;51.922;8.850;2023-08-12T03:38:50;17.65;;;9.45;;
53391;SDS011;41667;51.922;8.850;2023-08-12T03:41:16;14.75;;;8.95;;
53391;SDS011;41667;51.922;8.850;2023-08-12T03:43:41;15.30;;;8.57;;
53391;SDS011;41667;51.922;8.850;2023-08-12T03:46:07;16.03;;;9.33;;
53391;SDS011;41667;51.922;8.850;2023-08-12T03:48:32;13.07;;;8.35;;
53391;SDS011;41667;51.922;8.850;2023-08-12T03:50:57;13.07;;;9.30;;
53391;SDS011;41667;51.922;8.850;2023-08-12T03:53:22;15.05;;;9.18;;
53391;SDS011;41667;51.922;8.850;2023-08-12T03:55:47;12.83;;;8.03;;
53391;SDS011;41667;51.922;8.850;2023-08-12T03:58:12;15.67;;;10.40;;
53391;SDS011;41667;51.922;8.850;2023-08-12T04:00:41;13.60;;;8.88;;
53391;SDS011;41667;51.922;8.850;2023-08-12T04:03:07;16.45;;;9.15;;
53391;SDS011;41667;51.922;8.850;2023-08-12T04:05:32;18.77;;;9.25;;
53391;SDS011;41667;51.922;8.850;2023-08-12T04:07:57;13.77;;;9.80;;
53391;SDS011;41667;51.922;8.850;2023-08-12T04:10:23;13.57;;;9.60;;
53391;SDS011;41667;51.922;8.850;2023-08-12T04:12:48;16.05;;;10.55;;
53391;SDS011;41667;51.922;8.850;2023-08-12T04:15:13;18.13;;;11.00;;
53391;SDS011;41667;51.922;8.850;2023-08-12T04:17:38;18.90;;;11.65;;
53391;SDS011;41667;51.922;8.850;2023-08-12T04:20:06;17.40;;;10.88;;
53391;SDS011;41667;51.922;8.850;2023-08-12T04:22:31;15.32;;;10.18;;
53391;SDS011;41667;51.922;8.850;2023-08-12T04:24:56;17.67;;;9.80;;
53391;SDS011;41667;51.922;8.850;2023-08-12T04:27:22;16.73;;;10.63;;
53391;SDS011;41667;51.922;8.850;2023-08-12T04:29:47;14.48;;;8.90;;
53391;SDS011;41667;51.922;8.850;2023-08-12T04:32:12;13.35;;;8.02;;
53391;SDS011;41667;51.922;8.850;2023-08-12T04:34:37;14.70;;;8.50;;
53391;SDS011;41667;51.922;8.850;2023-08-12T04:37:02;16.30;;;8.83;;
53391;SDS011;41667;51.922;8.850;2023-08-12T04:39:27;12.20;;;8.97;;
53391;SDS011;41667;51.922;8.850;2023-08-12T04:41:52;13.85;;;9.43;;
53391;SDS011;41667;51.922;8.850;2023-08-12T04:44:18;12.23;;;8.18;;
53391;SDS011;41667;51.922;8.850;2023-08-12T04:46:43;12.23;;;7.10;;
53391;SDS011;41667;51.922;8.850;2023-08-12T04:49:08;13.13;;;7.70;;
53391;SDS011;41667;51.922;8.850;2023-08-12T04:51:33;13.90;;;8.33;;
53391;SDS011;41667;51.922;8.850;2023-08-12T04:53:58;12.35;;;7.93;;
53391;SDS011;41667;51.922;8.850;2023-08-12T04:56:26;13.55;;;8.95;;
53391;SDS011;41667;51.922;8.850;2023-08-12T04:58:53;13.48;;;8.05;;
53391;SDS011;41667;51.922;8.850;2023-08-12T05:01:19;11.15;;;8.45;;
53391;SDS011;41667;51.922;8.850;2023-08-12T05:03:44;13.63;;;10.05;;
53391;SDS011;41667;51.922;8.850;2023-08-12T05:06:09;14.40;;;9.80;;
53391;SDS011;41667;51.922;8.850;2023-08-12T05:08:34;12.23;;;9.73;;
53391;SDS011;41667;51.922;8.850;2023-08-12T05:10:59;14.67;;;9.73;;
53391;SDS011;41667;51.922;8.850;2023-08-12T05:13:24;16.40;;;10.63;;
53391;SDS011;41667;51.922;8.850;2023-08-12T05:15:50;13.70;;;10.63;;
53391;SDS011;41667;51.922;8.850;2023-08-12T05:18:15;15.67;;;10.27;;
53391;SDS011;41667;51.922;8.850;2023-08-12T05:20:41;19.38;;;11.43;;
53391;SDS011;41667;51.922;8.850;2023-08-12T05:23:06;18.33;;;12.13;;
53391;SDS011;41667;51.922;8.850;2023-08-12T05:25:31;16.80;;;10.57;;
53391;SDS011;41667;51.922;8.850;2023-08-12T05:27:57;17.60;;;10.95;;
53391;SDS011;41667;51.922;8.850;2023-08-12T05:30:22;16.65;;;10.55;;
53391;SDS011;41667;51.922;8.850;2023-08-12T05:32:47;17.35;;;10.93;;
53391;SDS011;41667;51.922;8.850;2023-08-12T05:35:12;17.10;;;10.20;;
53391;SDS011;41667;51.922;8.850;2023-08-12T05:37:37;17.97;;;10.50;;
53391;SDS011;41667;51.922;8.850;2023-08-12T05:40:05;14.73;;;10.90;;
53391;SDS011;41667;51.922;8.850;2023-08-12T05:42:33;16.90;;;10.50;;
53391;SDS011;41667;51.922;8.850;2023-08-12T05:44:58;16.77;;;10.88;;
53391;SDS011;41667;51.922;8.850;2023-08-12T05:47:23;16.92;;;10.85;;
53391;SDS011;41667;51.922;8.850;2023-08-12T05:49:48;15.07;;;10.45;;
53391;SDS011;41667;51.922;8.850;2023-08-12T05:52:14;16.38;;;11.07;;
53391;SDS011;41667;51.922;8.850;2023-08-12T05:54:39;21.00;;;11.48;;
53391;SDS011;41667;51.922;8.850;2023-08-12T05:57:04;15.90;;;10.40;;
53391;SDS011;41667;51.922;8.850;2023-08-12T05:59:29;12.57;;;9.30;;
53391;SDS011;41667;51.922;8.850;2023-08-12T06:01:54;15.98;;;10.07;;
53391;SDS011;41667;51.922;8.850;2023-08-12T06:04:19;12.25;;;9.25;;
53391;SDS011;41667;51.922;8.850;2023-08-12T06:06:45;16.90;;;10.73;;
53391;SDS011;41667;51.922;8.850;2023-08-12T06:09:10;13.82;;;9.90;;
53391;SDS011;41667;51.922;8.850;2023-08-12T06:11:35;15.68;;;10.82;;
53391;SDS011;41667;51.922;8.850;2023-08-12T06:14:00;16.52;;;11.90;;
53391;SDS011;41667;51.922;8.850;2023-08-12T06:16:25;16.10;;;10.90;;
53391;SDS011;41667;51.922;8.850;2023-08-12T06:18:51;17.23;;;11.30;;
53391;SDS011;41667;51.922;8.850;2023-08-12T06:21:17;13.13;;;10.47;;
53391;SDS011;41667;51.922;8.850;2023-08-12T06:23:42;15.30;;;9.73;;
53391;SDS011;41667;51.922;8.850;2023-08-12T06:26:07;16.70;;;10.68;;
53391;SDS011;41667;51.922;8.850;2023-08-12T06:28:33;16.45;;;11.05;;
53391;SDS011;41667;51.922;8.850;2023-08-12T06:30:58;18.33;;;11.40;;
53391;SDS011;41667;51.922;8.850;2023-08-12T06:33:23;17.77;;;11.23;;
53391;SDS011;41667;51.922;8.850;2023-08-12T06:35:49;17.02;;;12.05;;
53391;SDS011;41667;51.922;8.850;2023-08-12T06:38:14;16.88;;;12.18;;
53391;SDS011;41667;51.922;8.850;2023-08-12T06:40:39;18.20;;;11.65;;
53391;SDS011;41667;51.922;8.850;2023-08-12T06:43:05;17.47;;;10.97;;
53391;SDS011;41667;51.922;8.850;2023-08-12T06:45:32;18.00;;;11.63;;
53391;SDS011;41667;51.922;8.850;2023-08-12T06:47:57;16.48;;;11.73;;
53391;SDS011;41667;51.922;8.850;2023-08-12T06:50:22;16.85;;;11.30;;
53391;SDS011;41667;51.922;8.850;2023-08-12T06:52:47;16.27;;;12.13;;
53391;SDS011;41667;51.922;8.850;2023-08-12T06:55:12;19.27;;;12.25;;
53391;SDS011;41667;51.922;8.850;2023-08-12T06:57:37;17.03;;;12.90;;
53391;SDS011;41667;51.922;8.850;2023-08-12T07:00:03;16.75;;;11.60;;
53391;SDS011;41667;51.922;8.850;2023-08-12T07:02:28;18.52;;;12.20;;
53391;SDS011;41667;51.922;8.850;2023-08-12T07:04:53;16.17;;;11.93;;
53391;SDS011;41667;51.922;8.850;2023-08-12T07:07:18;15.77;;;11.80;;
53391;SDS011;41667;51.922;8.850;2023-08-12T07:09:43;21.53;;;12.10;;
53391;SDS011;41667;51.922;8.850;2023-08-12T07:12:09;27.30;;;13.40;;
53391;SDS011;41667;51.922;8.850;2023-08-12T07:14:34;19.48;;;13.07;;
53391;SDS011;41667;51.922;8.850;2023-08-12T07:16:59;20.50;;;13.43;;
53391;SDS011;41667;51.922;8.850;2023-08-12T07:19:24;16.20;;;11.37;;
53391;SDS011;41667;51.922;8.850;2023-08-12T07:21:50;20.88;;;12.02;;
53391;SDS011;41667;51.922;8.850;2023-08-12T07:24:15;19.50;;;12.57;;
53391;SDS011;41667;51.922;8.850;2023-08-12T07:26:40;13.55;;;10.48;;
53391;SDS011;41667;51.922;8.850;2023-08-12T07:29:05;13.90;;;11.03;;
53391;SDS011;41667;51.922;8.850;2023-08-12T07:31:30;13.10;;;10.20;;
53391;SDS011;41667;51.922;8.850;2023-08-12T07:33:55;13.90;;;10.23;;
53391;SDS011;41667;51.922;8.850;2023-08-12T07:36:21;13.43;;;10.43;;
53391;SDS011;41667;51.922;8.850;2023-08-12T07:38:46;12.18;;;9.05;;
53391;SDS011;41667;51.922;8.850;2023-08-12T07:41:11;16.25;;;9.95;;
53391;SDS011;41667;51.922;8.850;2023-08-12T07:43:36;13.60;;;9.97;;
53391;SDS011;41667;51.922;8.850;2023-08-12T07:46:01;13.18;;;10.02;;
53391;SDS011;41667;51.922;8.850;2023-08-12T07:48:26;12.50;;;9.60;;
53391;SDS011;41667;51.922;8.850;2023-08-12T07:50:56;12.17;;;9.63;;
53391;SDS011;41667;51.922;8.850;2023-08-12T07:53:21;12.70;;;9.55;;
53391;SDS011;41667;51.922;8.850;2023-08-12T07:55:46;11.65;;;8.15;;
53391;SDS011;41667;51.922;8.850;2023-08-12T07:58:11;9.88;;;8.10;;
53391;SDS011;41667;51.922;8.850;2023-08-12T08:00:36;12.97;;;8.70;;
53391;SDS011;41667;51.922;8.850;2023-08-12T08:03:02;10.80;;;7.78;;
53391;SDS011;41667;51.922;8.850;2023-08-12T08:05:27;7.60;;;6.50;;
53391;SDS011;41667;51.922;8.850;2023-08-12T08:07:52;10.23;;;7.18;;
53391;SDS011;41667;51.922;8.850;2023-08-12T08:10:17;9.90;;;7.13;;
53391;SDS011;41667;51.922;8.850;2023-08-12T08:12:42;7.35;;;6.30;;
53391;SDS011;41667;51.922;8.850;2023-08-12T08:15:07;6.10;;;5.47;;
53391;SDS011;41667;51.922;8.850;2023-08-12T08:17:33;6.57;;;5.60;;
53391;SDS011;41667;51.922;8.850;2023-08-12T08:19:58;6.93;;;5.03;;
53391;SDS011;41667;51.922;8.850;2023-08-12T08:22:23;6.60;;;5.03;;
53391;SDS011;41667;51.922;8.850;2023-08-12T08:24:48;6.22;;;4.20;;
53391;SDS011;41667;51.922;8.850;2023-08-12T08:27:13;6.73;;;4.90;;
53391;SDS011;41667;51.922;8.850;2023-08-12T08:29:39;5.80;;;5.20;;
53391;SDS011;41667;51.922;8.850;2023-08-12T08:32:04;6.38;;;4.55;;
53391;SDS011;41667;51.922;8.850;2023-08-12T08:34:29;5.68;;;4.65;;
53391;SDS011;41667;51.922;8.850;2023-08-12T08:36:55;5.55;;;4.30;;
53391;SDS011;41667;51.922;8.850;2023-08-12T08:39:20;5.22;;;4.72;;
53391;SDS011;41667;51.922;8.850;2023-08-12T08:41:46;6.38;;;5.70;;
53391;SDS011;41667;51.922;8.850;2023-08-12T08:44:12;6.00;;;4.10;;
53391;SDS011;41667;51.922;8.850;2023-08-12T08:46:38;6.15;;;5.22;;
53391;SDS011;41667;51.922;8.850;2023-08-12T08:49:03;7.25;;;4.40;;
53391;SDS011;41667;51.922;8.850;2023-08-12T08:51:30;5.35;;;4.85;;
53391;SDS011;41667;51.922;8.850;2023-08-12T08:53:55;5.25;;;4.28;;
53391;SDS011;41667;51.922;8.850;2023-08-12T08:56:21;5.40;;;4.50;;
53391;SDS011;41667;51.922;8.850;2023-08-12T08:58:46;5.25;;;4.72;;
53391;SDS011;41667;51.922;8.850;2023-08-12T09:01:12;4.97;;;4.40;;
53391;SDS011;41667;51.922;8.850;2023-08-12T09:03:38;7.45;;;4.15;;
53391;SDS011;41667;51.922;8.850;2023-08-12T09:06:03;5.13;;;4.63;;
53391;SDS011;41667;51.922;8.850;2023-08-12T09:08:29;4.93;;;4.40;;
53391;SDS011;41667;51.922;8.850;2023-08-12T09:10:56;4.93;;;4.43;;
53391;SDS011;41667;51.922;8.850;2023-08-12T09:13:22;5.78;;;4.30;;
53391;SDS011;41667;51.922;8.850;2023-08-12T09:15:47;4.82;;;4.30;;
53391;SDS011;41667;51.922;8.850;2023-08-12T09:18:12;7.72;;;4.55;;
53391;SDS011;41667;51.922;8.850;2023-08-12T09:20:37;6.80;;;5.37;;
53391;SDS011;41667;51.922;8.850;2023-08-12T09:23:02;5.13;;;4.63;;
53391;SDS011;41667;51.922;8.850;2023-08-12T09:25:28;5.17;;;4.67;;
53391;SDS011;41667;51.922;8.850;2023-08-12T09:27:54;5.38;;;4.85;;
53391;SDS011;41667;51.922;8.850;2023-08-12T09:30:20;4.88;;;4.45;;
53391;SDS011;41667;51.922;8.850;2023-08-12T09:32:57;5.63;;;4.43;;
53391;SDS011;41667;51.922;8.850;2023-08-12T09:35:22;5.10;;;4.60;;
53391;SDS011;41667;51.922;8.850;2023-08-12T09:37:47;4.88;;;4.43;;
53391;SDS011;41667;51.922;8.850;2023-08-12T09:40:14;6.88;;;3.70;;
53391;SDS011;41667;51.922;8.850;2023-08-12T09:42:46;6.88;;;3.90;;
53391;SDS011;41667;51.922;8.850;2023-08-12T09:45:12;5.63;;;4.45;;
53391;SDS011;41667;51.922;8.850;2023-08-12T09:47:37;5.17;;;3.43;;
53391;SDS011;41667;51.922;8.850;2023-08-12T09:50:06;4.20;;;3.80;;
53391;SDS011;41667;51.922;8.850;2023-08-12T09:52:31;3.70;;;2.92;;
53391;SDS011;41667;51.922;8.850;2023-08-12T09:54:57;3.92;;;3.63;;
53391;SDS011;41667;51.922;8.850;2023-08-12T09:57:23;2.78;;;2.58;;
53391;SDS011;41667;51.922;8.850;2023-08-12T09:59:50;3.58;;;3.15;;
53391;SDS011;41667;51.922;8.850;2023-08-12T10:02:18;2.75;;;2.55;;
53391;SDS011;41667;51.922;8.850;2023-08-12T10:04:44;4.05;;;2.53;;
53391;SDS011;41667;51.922;8.850;2023-08-12T10:07:10;2.30;;;2.10;;
53391;SDS011;41667;51.922;8.850;2023-08-12T10:09:38;2.42;;;1.90;;
53391;SDS011;41667;51.922;8.850;2023-08-12T10:12:04;1.88;;;1.77;;
53391;SDS011;41667;51.922;8.850;2023-08-12T10:14:29;1.95;;;1.85;;
53391;SDS011;41667;51.922;8.850;2023-08-12T10:16:55;1.90;;;1.80;;
53391;SDS011;41667;51.922;8.850;2023-08-12T10:19:20;2.85;;;2.25;;
53391;SDS011;41667;51.922;8.850;2023-08-12T10:21:46;2.42;;;2.22;;
53391;SDS011;41667;51.922;8.850;2023-08-12T10:24:12;2.50;;;2.20;;
53391;SDS011;41667;51.922;8.850;2023-08-12T10:26:39;2.15;;;1.92;;
53391;SDS011;41667;51.922;8.850;2023-08-12T10:29:05;2.47;;;2.28;;
53391;SDS011;41667;51.922;8.850;2023-08-12T10:31:30;3.47;;;2.83;;
53391;SDS011;41667;51.922;8.850;2023-08-12T10:33:57;2.87;;;2.53;;
53391;SDS011;41667;51.922;8.850;2023-08-12T10:36:22;2.22;;;1.88;;
53391;SDS011;41667;51.922;8.850;2023-08-12T10:38:48;1.98;;;1.63;;
53391;SDS011;41667;51.922;8.850;2023-08-12T10:44:00;1.23;;;1.13;;
53391;SDS011;41667;51.922;8.850;2023-08-12T10:46:33;4.03;;;1.08;;
53391;SDS011;41667;51.922;8.850;2023-08-12T10:49:08;1.23;;;1.13;;
53391;SDS011;41667;51.922;8.850;2023-08-12T10:51:40;1.75;;;1.65;;
53391;SDS011;41667;51.922;8.850;2023-08-12T10:54:16;1.23;;;1.20;;
53391;SDS011;41667;51.922;8.850;2023-08-12T11:02:13;0.70;;;0.70;;
53391;SDS011;41667;51.922;8.850;2023-08-12T11:04:41;2.33;;;1.42;;
53391;SDS011;41667;51.922;8.850;2023-08-12T11:07:16;1.30;;;1.20;;
53391;SDS011;41667;51.922;8.850;2023-08-12T11:09:41;1.27;;;1.10;;
53391;SDS011;41667;51.922;8.850;2023-08-12T11:12:07;6.27;;;1.83;;
53391;SDS011;41667;51.922;8.850;2023-08-12T11:14:33;1.27;;;1.17;;
53391;SDS011;41667;51.922;8.850;2023-08-12T11:16:58;1.30;;;1.20;;
53391;SDS011;41667;51.922;8.850;2023-08-12T11:19:23;1.20;;;1.17;;
53391;SDS011;41667;51.922;8.850;2023-08-12T11:21:49;1.35;;;1.25;;
53391;SDS011;41667;51.922;8.850;2023-08-12T11:24:15;3.50;;;1.20;;
53391;SDS011;41667;51.922;8.850;2023-08-12T11:26:41;1.37;;;1.27;;
53391;SDS011;41667;51.922;8.850;2023-08-12T11:29:11;1.60;;;1.50;;
53391;SDS011;41667;51.922;8.850;2023-08-12T11:31:36;1.65;;;1.55;;
53391;SDS011;41667;51.922;8.850;2023-08-12T11:34:01;1.80;;;1.20;;
53391;SDS011;41667;51.922;8.850;2023-08-12T11:36:26;1.30;;;1.20;;
53391;SDS011;41667;51.922;8.850;2023-08-12T11:38:55;1.45;;;1.35;;
53391;SDS011;41667;51.922;8.850;2023-08-12T11:41:22;1.20;;;1.20;;
53391;SDS011;41667;51.922;8.850;2023-08-12T11:43:47;2.50;;;1.23;;
53391;SDS011;41667;51.922;8.850;2023-08-12T11:46:15;2.03;;;1.20;;
53391;SDS011;41667;51.922;8.850;2023-08-12T11:48:40;1.00;;;1.00;;
53391;SDS011;41667;51.922;8.850;2023-08-12T11:51:05;1.20;;;1.10;;
53391;SDS011;41667;51.922;8.850;2023-08-12T11:53:30;1.17;;;1.13;;
53391;SDS011;41667;51.922;8.850;2023-08-12T11:55:56;1.35;;;1.20;;
53391;SDS011;41667;51.922;8.850;2023-08-12T11:58:21;1.73;;;1.50;;
53391;SDS011;41667;51.922;8.850;2023-08-12T12:00:48;1.15;;;1.10;;
53391;SDS011;41667;51.922;8.850;2023-08-12T12:03:15;1.52;;;0.93;;
53391;SDS011;41667;51.922;8.850;2023-08-12T12:05:40;0.75;;;0.75;;
53391;SDS011;41667;51.922;8.850;2023-08-12T12:08:05;1.33;;;1.00;;
53391;SDS011;41667;51.922;8.850;2023-08-12T12:10:34;0.93;;;0.93;;
53391;SDS011;41667;51.922;8.850;2023-08-12T12:12:59;2.38;;;0.73;;
53391;SDS011;41667;51.922;8.850;2023-08-12T12:15:25;0.60;;;0.60;;
53391;SDS011;41667;51.922;8.850;2023-08-12T12:17:50;1.00;;;1.00;;
53391;SDS011;41667;51.922;8.850;2023-08-12T12:20:16;1.10;;;1.00;;
53391;SDS011;41667;51.922;8.850;2023-08-12T12:22:41;0.60;;;0.60;;
53391;SDS011;41667;51.922;8.850;2023-08-12T12:25:08;1.98;;;0.90;;
53391;SDS011;41667;51.922;8.850;2023-08-12T12:27:34;0.63;;;0.60;;
53391;SDS011;41667;51.922;8.850;2023-08-12T12:30:02;2.05;;;1.08;;
53391;SDS011;41667;51.922;8.850;2023-08-12T12:32:27;0.60;;;0.60;;
53391;SDS011;41667;51.922;8.850;2023-08-12T12:34:52;0.77;;;0.77;;
53391;SDS011;41667;51.922;8.850;2023-08-12T12:37:19;0.80;;;0.80;;
53391;SDS011;41667;51.922;8.850;2023-08-12T12:39:45;1.07;;;1.07;;
53391;SDS011;41667;51.922;8.850;2023-08-12T12:42:10;0.90;;;0.90;;
53391;SDS011;41667;51.922;8.850;2023-08-12T12:44:36;0.70;;;0.70;;
53391;SDS011;41667;51.922;8.850;2023-08-12T12:47:02;0.83;;;0.83;;
53391;SDS011;41667;51.922;8.850;2023-08-12T12:49:27;0.93;;;0.88;;
53391;SDS011;41667;51.922;8.850;2023-08-12T12:51:53;0.80;;;0.80;;
53391;SDS011;41667;51.922;8.850;2023-08-12T12:54:18;0.70;;;0.70;;
53391;SDS011;41667;51.922;8.850;2023-08-12T12:56:43;1.07;;;1.07;;
53391;SDS011;41667;51.922;8.850;2023-08-12T12:59:09;0.70;;;0.70;;
53391;SDS011;41667;51.922;8.850;2023-08-12T13:01:34;0.80;;;0.80;;
53391;SDS011;41667;51.922;8.850;2023-08-12T13:03:59;1.13;;;1.10;;
53391;SDS011;41667;51.922;8.850;2023-08-12T13:06:24;1.47;;;0.93;;
53391;SDS011;41667;51.922;8.850;2023-08-12T13:08:50;1.27;;;1.13;;
53391;SDS011;41667;51.922;8.850;2023-08-12T13:11:15;0.77;;;0.73;;
53391;SDS011;41667;51.922;8.850;2023-08-12T13:13:40;0.50;;;0.50;;
53391;SDS011;41667;51.922;8.850;2023-08-12T13:16:05;1.00;;;1.00;;
53391;SDS011;41667;51.922;8.850;2023-08-12T13:18:30;1.43;;;1.13;;
53391;SDS011;41667;51.922;8.850;2023-08-12T13:20:56;1.03;;;1.03;;
53391;SDS011;41667;51.922;8.850;2023-08-12T13:23:21;0.80;;;0.80;;
53391;SDS011;41667;51.922;8.850;2023-08-12T13:25:46;0.80;;;0.80;;
53391;SDS011;41667;51.922;8.850;2023-08-12T13:28:11;1.00;;;0.90;;
53391;SDS011;41667;51.922;8.850;2023-08-12T13:30:36;1.45;;;1.00;;
53391;SDS011;41667;51.922;8.850;2023-08-12T13:33:02;3.50;;;1.00;;
53391;SDS011;41667;51.922;8.850;2023-08-12T13:35:27;1.20;;;1.10;;
53391;SDS011;41667;51.922;8.850;2023-08-12T13:37:53;1.15;;;1.15;;
53391;SDS011;41667;51.922;8.850;2023-08-12T13:40:18;1.35;;;1.25;;
53391;SDS011;41667;51.922;8.850;2023-08-12T13:42:43;1.20;;;1.20;;
53391;SDS011;41667;51.922;8.850;2023-08-12T13:45:11;2.90;;;2.20;;
53391;SDS011;41667;51.922;8.850;2023-08-12T13:47:37;1.88;;;1.77;;
53391;SDS011;41667;51.922;8.850;2023-08-12T13:50:02;1.90;;;1.77;;
53391;SDS011;41667;51.922;8.850;2023-08-12T13:52:27;2.33;;;1.40;;
53391;SDS011;41667;51.922;8.850;2023-08-12T13:54:52;1.97;;;1.57;;
53391;SDS011;41667;51.922;8.850;2023-08-12T13:57:18;2.30;;;2.10;;
53391;SDS011;41667;51.922;8.850;2023-08-12T13:59:43;2.10;;;2.00;;
53391;SDS011;41667;51.922;8.850;2023-08-12T14:02:08;1.85;;;1.75;;
53391;SDS011;41667;51.922;8.850;2023-08-12T14:04:34;5.68;;;2.17;;
53391;SDS011;41667;51.922;8.850;2023-08-12T14:06:59;2.70;;;2.17;;
53391;SDS011;41667;51.922;8.850;2023-08-12T14:09:24;4.20;;;2.37;;
53391;SDS011;41667;51.922;8.850;2023-08-12T14:11:49;2.00;;;1.75;;
53391;SDS011;41667;51.922;8.850;2023-08-12T14:14:14;2.92;;;1.77;;
53391;SDS011;41667;51.922;8.850;2023-08-12T14:16:39;2.17;;;1.93;;
53391;SDS011;41667;51.922;8.850;2023-08-12T14:19:05;1.77;;;1.67;;
53391;SDS011;41667;51.922;8.850;2023-08-12T14:21:30;3.40;;;1.80;;
53391;SDS011;41667;51.922;8.850;2023-08-12T14:23:55;2.00;;;1.90;;
53391;SDS011;41667;51.922;8.850;2023-08-12T14:26:20;2.23;;;2.10;;
53391;SDS011;41667;51.922;8.850;2023-08-12T14:28:45;4.10;;;2.00;;
53391;SDS011;41667;51.922;8.850;2023-08-12T14:31:10;1.65;;;1.55;;
53391;SDS011;41667;51.922;8.850;2023-08-12T14:33:36;2.53;;;1.75;;
53391;SDS011;41667;51.922;8.850;2023-08-12T14:36:02;1.65;;;1.52;;
53391;SDS011;41667;51.922;8.850;2023-08-12T14:38:27;2.65;;;1.45;;
53391;SDS011;41667;51.922;8.850;2023-08-12T14:40:53;5.50;;;1.60;;